Island Lookout — WDF6311 — position and weather

sailwx.info

Track history (hours):
 
Tides and Currents Weather Stations Pressure Air Temp Water Temp Dewpoint Dewpoint Depression Visibility Wind Speed Wind Dir Waves Ship Positions

Island Lookout

Owner: Stevens Towing Company Inc., Yonges Island, SC. More information available from US FCC via Universal Licensing System and Coast Guard Vessel Documentation Center.

Last reported at 2014-Oct-22 16:25 UTC. Time now 2014-Oct-23 14:33 UTC.
Position N 36°44' W 076°16'.

Length 22 m; draft 2.9 m.

Type: Towing. MMSI: 367472930.

Date/timePositionNaut miles runAvg speedWind from/ knotsBaromVisibWave heightAir tempDewpointWater temp
2014-Oct-22 16:25N 36°44' W 076°16'3 3.5
2014-Oct-22 15:33N 36°46' W 076°18'21 4.8
2014-Oct-22 11:08N 37°07' W 076°13'125 6.4
2014-Oct-21 15:32N 39°12' W 076°29'4 4.5
2014-Oct-21 14:33N 39°12' W 076°35'0 0.3
2014-Oct-21 13:33N 39°13' W 076°35'0 0.0
2014-Oct-21 12:33N 39°13' W 076°35'0 0.3
2014-Oct-21 11:33N 39°12' W 076°35'0 0.0
2014-Oct-21 10:33N 39°12' W 076°35'0 0.1
2014-Oct-21 09:34N 39°12' W 076°35'0 0.0
2014-Oct-21 08:33N 39°12' W 076°35'0 0.0
2014-Oct-21 07:33N 39°12' W 076°35'0 0.0
2014-Oct-21 06:34N 39°12' W 076°35'0 0.0
2014-Oct-21 05:33N 39°12' W 076°35'0 0.0
2014-Oct-21 04:33N 39°12' W 076°35'0 0.0
2014-Oct-21 03:33N 39°12' W 076°35'0 0.1
2014-Oct-21 02:33N 39°12' W 076°35'5 4.7
2014-Oct-21 01:33N 39°12' W 076°29'15 6.4
2014-Oct-20 23:17N 38°58' W 076°24'112 7.6
2014-Oct-20 08:28N 37°06' W 076°13'  
2014-Oct-17 09:31N 36°50' W 076°18'6 6.1
2014-Oct-17 08:29N 36°56' W 076°20'6 6.3
2014-Oct-17 07:33N 37°01' W 076°17'6 5.8
2014-Oct-17 06:33N 37°06' W 076°13'7 6.5
2014-Oct-17 05:30N 37°13' W 076°12'165 3.7
2014-Oct-15 09:03N 39°51' W 075°15'76 6.6
2014-Oct-14 21:34N 38°57' W 076°24'109 6.4
2014-Oct-14 04:29N 37°08' W 076°10'7 6.1
2014-Oct-14 03:21N 37°02' W 076°13'5 6.1
2014-Oct-14 02:33N 36°60' W 076°18'7 6.5
2014-Oct-14 01:33N 36°53' W 076°20'  
Track history (hours):
 
Tides and Currents Weather Stations Pressure Air Temp Water Temp Dewpoint Dewpoint Depression Visibility Wind Speed Wind Dir Waves Ship Positions

Island Lookout

Owner: Stevens Towing Company Inc., Yonges Island, SC. More information available from US FCC via Universal Licensing System and Coast Guard Vessel Documentation Center.

Last reported at 2014-Oct-22 16:25 UTC. Time now 2014-Oct-23 14:33 UTC.
Position N 36°44' W 076°16'.

Length 22 m; draft 2.9 m.

Type: Towing. MMSI: 367472930.

Date/timePositionNaut miles runAvg speedWind from/ knotsBaromVisibWave heightAir tempDewpointWater temp
2014-Oct-22 16:25N 36°44' W 076°16'3 3.5
2014-Oct-22 15:33N 36°46' W 076°18'21 4.8
2014-Oct-22 11:08N 37°07' W 076°13'125 6.4
2014-Oct-21 15:32N 39°12' W 076°29'4 4.5
2014-Oct-21 14:33N 39°12' W 076°35'0 0.3
2014-Oct-21 13:33N 39°13' W 076°35'0 0.0
2014-Oct-21 12:33N 39°13' W 076°35'0 0.3
2014-Oct-21 11:33N 39°12' W 076°35'0 0.0
2014-Oct-21 10:33N 39°12' W 076°35'0 0.1
2014-Oct-21 09:34N 39°12' W 076°35'0 0.0
2014-Oct-21 08:33N 39°12' W 076°35'0 0.0
2014-Oct-21 07:33N 39°12' W 076°35'0 0.0
2014-Oct-21 06:34N 39°12' W 076°35'0 0.0
2014-Oct-21 05:33N 39°12' W 076°35'0 0.0
2014-Oct-21 04:33N 39°12' W 076°35'0 0.0
2014-Oct-21 03:33N 39°12' W 076°35'0 0.1
2014-Oct-21 02:33N 39°12' W 076°35'5 4.7
2014-Oct-21 01:33N 39°12' W 076°29'15 6.4
2014-Oct-20 23:17N 38°58' W 076°24'112 7.6
2014-Oct-20 08:28N 37°06' W 076°13'  
2014-Oct-17 09:31N 36°50' W 076°18'6 6.1
2014-Oct-17 08:29N 36°56' W 076°20'6 6.3
2014-Oct-17 07:33N 37°01' W 076°17'6 5.8
2014-Oct-17 06:33N 37°06' W 076°13'7 6.5
2014-Oct-17 05:30N 37°13' W 076°12'165 3.7
2014-Oct-15 09:03N 39°51' W 075°15'76 6.6
2014-Oct-14 21:34N 38°57' W 076°24'109 6.4
2014-Oct-14 04:29N 37°08' W 076°10'7 6.1
2014-Oct-14 03:21N 37°02' W 076°13'5 6.1
2014-Oct-14 02:33N 36°60' W 076°18'7 6.5
2014-Oct-14 01:33N 36°53' W 076°20'  

Dump ship's entire track history